createdAt,value
2018-01-26T00:00:10.877Z,14.23
2018-01-26T00:02:38.537Z,15.70
2018-01-26T00:05:06.177Z,15.20
2018-01-26T00:07:34.626Z,13.40
2018-01-26T00:10:02.231Z,12.13
2018-01-26T00:12:29.848Z,12.63
2018-01-26T00:14:57.416Z,12.23
2018-01-26T00:17:25.021Z,12.07
2018-01-26T00:19:55.344Z,12.73
2018-01-26T00:22:22.919Z,12.47
2018-01-26T00:24:50.523Z,12.80
2018-01-26T00:27:18.917Z,12.83
2018-01-26T00:29:57.515Z,12.87
2018-01-26T00:32:25.933Z,12.60
2018-01-26T00:34:53.507Z,13.23
2018-01-26T00:37:21.069Z,13.53
2018-01-26T00:39:48.679Z,13.33
2018-01-26T00:42:18.953Z,13.23
2018-01-26T00:44:46.557Z,12.37
2018-01-26T00:47:14.948Z,13.63
2018-01-26T00:49:49.630Z,12.40
2018-01-26T00:52:18.320Z,13.03
2018-01-26T00:54:45.938Z,13.17
2018-01-26T00:57:13.519Z,13.20
2018-01-26T00:59:57.776Z,12.53
2018-01-26T01:02:25.905Z,13.43
2018-01-26T01:04:54.082Z,12.97
2018-01-26T01:07:22.790Z,12.43
2018-01-26T01:09:59.138Z,13.63
2018-01-26T01:12:26.727Z,13.33
2018-01-26T01:14:55.167Z,12.77
2018-01-26T01:17:22.759Z,13.33
2018-01-26T01:19:55.351Z,12.23
2018-01-26T01:22:23.549Z,13.83
2018-01-26T01:24:51.915Z,13.40
2018-01-26T01:27:19.525Z,13.40
2018-01-26T01:29:52.417Z,12.90
2018-01-26T01:32:20.014Z,12.37
2018-01-26T01:34:47.640Z,13.20
2018-01-26T01:37:15.247Z,13.60
2018-01-26T01:39:43.787Z,13.37
2018-01-26T01:42:11.394Z,14.87
2018-01-26T01:44:40.494Z,13.27
2018-01-26T01:47:08.140Z,14.00
2018-01-26T01:49:37.352Z,13.13
2018-01-26T01:52:05.725Z,13.10
2018-01-26T01:54:34.092Z,12.60
2018-01-26T01:57:01.720Z,12.73
2018-01-26T01:59:32.360Z,12.87
2018-01-26T02:01:59.959Z,12.73
2018-01-26T02:04:27.645Z,12.37
2018-01-26T02:06:56.697Z,12.40
2018-01-26T02:09:24.285Z,12.93
2018-01-26T02:11:52.643Z,13.73
2018-01-26T02:14:20.253Z,14.03
2018-01-26T02:16:48.609Z,14.40
2018-01-26T02:19:17.220Z,14.40
2018-01-26T02:21:44.876Z,13.07
2018-01-26T02:24:12.475Z,13.07
2018-01-26T02:26:40.100Z,15.07
2018-01-26T02:29:07.804Z,14.37
2018-01-26T02:31:35.383Z,14.57
2018-01-26T02:34:03.029Z,13.77
2018-01-26T02:36:30.678Z,15.87
2018-01-26T02:38:58.413Z,14.03
2018-01-26T02:41:26.065Z,14.03
2018-01-26T02:43:54.467Z,15.10
2018-01-26T02:46:22.091Z,14.03
2018-01-26T02:48:49.677Z,14.20
2018-01-26T02:51:18.073Z,14.33
2018-01-26T02:53:45.714Z,12.90
2018-01-26T02:56:14.101Z,13.50
2018-01-26T02:58:45.695Z,14.20
2018-01-26T03:01:13.752Z,13.90
2018-01-26T03:03:41.366Z,14.67
2018-01-26T03:06:08.955Z,15.23
2018-01-26T03:08:47.154Z,14.40
2018-01-26T03:11:14.826Z,13.70
2018-01-26T03:13:42.390Z,14.27
2018-01-26T03:16:09.988Z,13.70
2018-01-26T03:18:45.322Z,14.30
2018-01-26T03:21:12.947Z,13.87
2018-01-26T03:23:40.561Z,15.37
2018-01-26T03:26:08.212Z,13.77
2018-01-26T03:28:35.795Z,13.13
2018-01-26T03:31:03.384Z,13.53
2018-01-26T03:33:31.005Z,14.30
2018-01-26T03:35:58.635Z,14.43
2018-01-26T03:38:39.771Z,13.77
2018-01-26T03:41:08.175Z,13.37
2018-01-26T03:43:35.777Z,14.63
2018-01-26T03:46:03.343Z,14.37
2018-01-26T03:48:31.944Z,14.87
2018-01-26T03:50:59.542Z,15.40
2018-01-26T03:53:27.134Z,14.17
2018-01-26T03:55:54.832Z,14.50
2018-01-26T03:58:24.382Z,14.37
2018-01-26T04:00:51.991Z,14.27
2018-01-26T04:03:20.351Z,14.53
2018-01-26T04:05:47.964Z,15.57
2018-01-26T04:08:15.535Z,14.70
2018-01-26T04:10:43.191Z,14.10
2018-01-26T04:13:11.564Z,15.30
2018-01-26T04:15:39.144Z,15.40
2018-01-26T04:18:20.401Z,16.13
2018-01-26T04:20:48.030Z,15.07
2018-01-26T04:23:16.379Z,15.03
2018-01-26T04:25:44.028Z,16.47
2018-01-26T04:28:15.882Z,16.20
2018-01-26T04:30:43.502Z,16.37
2018-01-26T04:33:11.916Z,15.43
2018-01-26T04:35:39.528Z,17.10
2018-01-26T04:38:07.208Z,18.37
2018-01-26T04:40:34.862Z,18.03
2018-01-26T04:43:02.500Z,18.57
2018-01-26T04:45:30.157Z,18.53
2018-01-26T04:48:01.598Z,18.03
2018-01-26T04:50:29.809Z,17.13
2018-01-26T04:52:57.432Z,17.83
2018-01-26T04:55:25.866Z,17.47
2018-01-26T04:57:55.325Z,17.00
2018-01-26T05:00:23.383Z,17.37
2018-01-26T05:02:50.997Z,17.53
2018-01-26T05:05:18.618Z,17.83
2018-01-26T05:07:47.322Z,17.47
2018-01-26T05:10:14.937Z,17.90
2018-01-26T05:12:42.594Z,19.27
2018-01-26T05:15:10.952Z,19.70
2018-01-26T05:17:38.566Z,18.03
2018-01-26T05:20:06.968Z,16.67
2018-01-26T05:22:34.636Z,17.67
2018-01-26T05:25:02.275Z,17.33
2018-01-26T05:27:29.899Z,16.50
2018-01-26T05:29:57.466Z,16.40
2018-01-26T05:32:25.178Z,16.03
2018-01-26T05:34:52.838Z,16.30
2018-01-26T05:37:20.437Z,16.73
2018-01-26T05:39:49.019Z,17.10
2018-01-26T05:42:16.620Z,16.60
2018-01-26T05:44:45.041Z,16.17
2018-01-26T05:47:13.343Z,16.57
2018-01-26T05:49:41.978Z,19.13
2018-01-26T05:52:10.412Z,17.97
2018-01-26T05:54:38.074Z,17.33
2018-01-26T05:57:06.440Z,16.57
2018-01-26T05:59:35.034Z,17.57
2018-01-26T06:02:03.224Z,17.53
2018-01-26T06:04:30.992Z,18.80
2018-01-26T06:06:59.442Z,16.67
2018-01-26T06:09:28.962Z,16.47
2018-01-26T06:11:56.622Z,17.53
2018-01-26T06:14:24.820Z,16.80
2018-01-26T06:16:52.466Z,15.80
2018-01-26T06:19:22.021Z,16.10
2018-01-26T06:21:50.351Z,15.77
2018-01-26T06:24:17.985Z,15.90
2018-01-26T06:26:45.632Z,16.47
2018-01-26T06:29:13.368Z,16.63
2018-01-26T06:31:41.003Z,17.00
2018-01-26T06:34:08.744Z,15.77
2018-01-26T06:36:36.351Z,15.97
2018-01-26T06:39:04.938Z,16.50
2018-01-26T06:41:32.686Z,17.07
2018-01-26T06:44:00.271Z,17.50
2018-01-26T06:46:27.880Z,16.87
2018-01-26T06:49:03.730Z,15.63
2018-01-26T06:51:31.354Z,15.20
2018-01-26T06:53:58.976Z,15.83
2018-01-26T06:56:26.634Z,17.37
2018-01-26T06:58:57.318Z,16.60
2018-01-26T07:01:24.904Z,16.57
2018-01-26T07:03:55.881Z,15.73
2018-01-26T07:06:23.476Z,16.23
2018-01-26T07:08:51.112Z,16.27
2018-01-26T07:11:18.695Z,15.97
2018-01-26T07:13:47.899Z,16.07
2018-01-26T07:16:15.885Z,15.90
2018-01-26T07:18:45.652Z,17.23
2018-01-26T07:21:13.398Z,16.30
2018-01-26T07:23:41.166Z,16.57
2018-01-26T07:26:09.566Z,17.50
2018-01-26T07:28:47.293Z,17.40
2018-01-26T07:31:15.064Z,17.13
2018-01-26T07:33:45.042Z,18.27
2018-01-26T07:36:12.938Z,17.77
2018-01-26T07:38:45.487Z,18.33
2018-01-26T07:41:13.378Z,18.03
2018-01-26T07:43:41.052Z,17.00
2018-01-26T07:46:12.958Z,22.60
2018-01-26T07:48:43.992Z,20.53
2018-01-26T07:51:12.938Z,20.10
2018-01-26T07:53:40.885Z,21.23
2018-01-26T07:56:08.673Z,20.60
2018-01-26T07:58:38.149Z,20.33
2018-01-26T08:01:05.927Z,20.27
2018-01-26T08:03:33.567Z,19.93
2018-01-26T08:06:01.976Z,20.33
2018-01-26T08:08:31.545Z,20.67
2018-01-26T08:11:00.462Z,21.80
2018-01-26T08:13:28.866Z,22.27
2018-01-26T08:15:56.550Z,24.03
2018-01-26T08:18:31.070Z,26.20
2018-01-26T08:20:58.848Z,25.90
2018-01-26T08:23:29.251Z,25.47
2018-01-26T08:25:58.154Z,25.00
2018-01-26T08:28:26.458Z,25.60
2018-01-26T08:30:54.151Z,28.23
2018-01-26T08:33:22.720Z,29.40
2018-01-26T08:35:50.391Z,29.33
2018-01-26T08:38:18.757Z,28.93
2018-01-26T08:40:46.397Z,27.07
2018-01-26T08:43:15.355Z,25.73
2018-01-26T08:45:42.951Z,23.10
2018-01-26T08:48:11.483Z,27.77
2018-01-26T08:50:39.967Z,25.03
2018-01-26T08:53:08.376Z,21.93
2018-01-26T08:55:36.104Z,24.73
2018-01-26T08:58:03.720Z,22.73
2018-01-26T09:00:31.345Z,20.63
2018-01-26T09:02:58.952Z,19.50
2018-01-26T09:05:27.393Z,23.33
2018-01-26T09:07:56.840Z,24.80
2018-01-26T09:10:25.342Z,22.43
2018-01-26T09:12:53.500Z,21.50
2018-01-26T09:15:21.089Z,21.17
2018-01-26T09:17:48.665Z,21.33
2018-01-26T09:20:16.909Z,20.57
2018-01-26T09:22:44.539Z,20.53
2018-01-26T09:25:12.124Z,22.17
2018-01-26T09:27:40.305Z,22.50
2018-01-26T09:30:07.951Z,23.00
2018-01-26T09:32:35.532Z,22.27
2018-01-26T09:35:03.492Z,21.50
2018-01-26T09:37:38.172Z,23.33
2018-01-26T09:40:05.750Z,22.40
2018-01-26T09:42:34.079Z,22.33
2018-01-26T09:45:01.710Z,22.10
2018-01-26T09:47:29.400Z,21.67
2018-01-26T09:49:57.971Z,20.87
2018-01-26T09:52:25.574Z,21.27
2018-01-26T09:54:53.145Z,20.93
2018-01-26T09:57:20.752Z,20.77
2018-01-26T09:59:57.999Z,21.20
2018-01-26T10:02:26.076Z,21.13
2018-01-26T10:04:53.799Z,19.97
2018-01-26T10:07:22.937Z,19.87
2018-01-26T10:09:50.530Z,21.57
2018-01-26T10:12:18.124Z,22.70
2018-01-26T10:14:45.787Z,22.47
2018-01-26T10:17:14.012Z,21.83
2018-01-26T10:19:41.556Z,21.47
2018-01-26T10:22:10.040Z,20.37
2018-01-26T10:24:37.624Z,21.27
2018-01-26T10:27:05.952Z,22.07
2018-01-26T10:29:36.892Z,22.50
2018-01-26T10:32:05.232Z,21.83
2018-01-26T10:34:33.806Z,22.90
2018-01-26T10:37:02.174Z,22.47
2018-01-26T10:39:47.454Z,22.70
2018-01-26T10:42:15.064Z,22.13
2018-01-26T10:44:42.657Z,22.70
2018-01-26T10:47:10.277Z,21.00
2018-01-26T10:49:38.918Z,22.93
2018-01-26T10:52:06.637Z,24.00
2018-01-26T10:54:34.221Z,22.90
2018-01-26T10:57:01.863Z,23.10
2018-01-26T11:02:23.194Z,23.60
2018-01-26T11:04:50.817Z,23.23
2018-01-26T11:07:19.016Z,23.47
2018-01-26T11:09:51.176Z,23.37
2018-01-26T11:12:18.754Z,22.77
2018-01-26T11:14:47.110Z,23.07
2018-01-26T11:17:14.715Z,22.60
2018-01-26T11:19:44.156Z,22.27
2018-01-26T11:22:12.833Z,22.10
2018-01-26T11:24:40.504Z,23.27
2018-01-26T11:27:08.697Z,21.77
2018-01-26T11:29:36.259Z,23.30
2018-01-26T11:32:03.903Z,21.77
2018-01-26T11:34:31.481Z,21.83
2018-01-26T11:36:59.093Z,22.00
2018-01-26T11:39:28.341Z,22.50
2018-01-26T11:41:56.426Z,22.73
2018-01-26T11:44:24.030Z,22.33
2018-01-26T11:46:51.634Z,20.23
2018-01-26T11:49:20.243Z,20.90
2018-01-26T11:51:48.672Z,23.00
2018-01-26T11:54:16.964Z,22.23
2018-01-26T11:56:44.557Z,23.33
2018-01-26T11:59:19.646Z,22.73
2018-01-26T12:01:47.535Z,21.93
2018-01-26T12:04:15.145Z,22.13
2018-01-26T12:06:42.802Z,22.90
2018-01-26T12:09:11.364Z,22.73
2018-01-26T12:11:38.958Z,23.87
2018-01-26T12:14:07.397Z,25.33
2018-01-26T12:16:35.079Z,24.37
2018-01-26T12:19:06.125Z,25.40
2018-01-26T12:21:34.599Z,24.33
2018-01-26T12:24:02.254Z,24.90
2018-01-26T12:26:30.823Z,25.17
2018-01-26T12:29:00.656Z,25.47
2018-01-26T12:31:28.390Z,24.17
2018-01-26T12:33:57.516Z,23.97
2018-01-26T12:36:26.198Z,25.40
2018-01-26T12:38:54.574Z,24.80
2018-01-26T12:41:22.233Z,27.57
2018-01-26T12:43:49.830Z,25.33
2018-01-26T12:46:17.369Z,24.37
2018-01-26T12:48:44.948Z,22.87
2018-01-26T12:51:13.286Z,23.43
2018-01-26T12:53:41.461Z,26.33
2018-01-26T12:56:09.135Z,25.77
2018-01-26T12:58:42.283Z,28.33
2018-01-26T13:01:10.697Z,25.57
2018-01-26T13:03:38.453Z,26.43
2018-01-26T13:06:06.908Z,26.10
2018-01-26T13:08:34.554Z,37.37
2018-01-26T13:11:02.140Z,27.10
2018-01-26T13:13:30.267Z,39.90
2018-01-26T13:15:58.573Z,38.67
2018-01-26T13:18:34.791Z,29.80
2018-01-26T13:21:02.410Z,26.67
2018-01-26T13:23:30.030Z,26.20
2018-01-26T13:25:57.754Z,26.33
2018-01-26T13:28:29.126Z,27.67
2018-01-26T13:30:56.759Z,29.53
2018-01-26T13:33:25.138Z,26.97
2018-01-26T13:35:52.747Z,30.17
2018-01-26T13:38:23.714Z,30.87
2018-01-26T13:40:51.916Z,30.90
2018-01-26T13:43:19.590Z,30.57
2018-01-26T13:45:47.250Z,30.23
2018-01-26T13:48:15.117Z,55.43
2018-01-26T13:50:48.429Z,34.77
2018-01-26T13:53:26.095Z,30.73
2018-01-26T13:55:55.524Z,32.10
2018-01-26T13:58:26.614Z,31.83
2018-01-26T14:00:54.216Z,34.93
2018-01-26T14:03:21.884Z,34.20
2018-01-26T14:05:49.460Z,33.43
2018-01-26T14:08:17.924Z,33.47
2018-01-26T14:10:46.456Z,34.10
2018-01-26T14:13:17.190Z,32.33
2018-01-26T14:15:44.866Z,34.00
2018-01-26T14:18:27.153Z,33.57
2018-01-26T14:20:55.385Z,32.90
2018-01-26T14:23:23.025Z,34.27
2018-01-26T14:25:50.679Z,36.80
2018-01-26T14:28:34.929Z,35.87
2018-01-26T14:31:02.617Z,36.97
2018-01-26T14:33:30.795Z,36.80
2018-01-26T14:35:58.441Z,37.13
2018-01-26T14:38:28.089Z,36.63
2018-01-26T14:40:56.208Z,38.80
2018-01-26T14:43:23.896Z,36.70
2018-01-26T14:45:51.566Z,36.60
2018-01-26T14:48:19.223Z,35.97
2018-01-26T14:50:46.817Z,36.83
2018-01-26T14:53:14.452Z,35.10
2018-01-26T14:55:42.084Z,38.27
2018-01-26T14:58:18.158Z,36.53
2018-01-26T15:00:45.786Z,34.23
2018-01-26T15:03:14.197Z,33.77
2018-01-26T15:05:41.812Z,34.90
2018-01-26T15:08:10.740Z,34.10
2018-01-26T15:10:38.450Z,37.40
2018-01-26T15:13:06.103Z,37.97
2018-01-26T15:15:33.757Z,49.73
2018-01-26T15:18:01.355Z,43.03
2018-01-26T15:20:31.395Z,44.97
2018-01-26T15:25:47.289Z,38.20
2018-01-26T15:28:16.814Z,35.93
2018-01-26T15:30:44.431Z,37.50
2018-01-26T15:33:12.124Z,37.03
2018-01-26T15:35:41.102Z,37.40
2018-01-26T15:38:12.940Z,36.80
2018-01-26T15:40:40.671Z,35.90
2018-01-26T15:43:09.322Z,34.57
2018-01-26T15:45:36.920Z,34.37
2018-01-26T15:48:05.567Z,32.90
2018-01-26T15:50:33.289Z,35.70
2018-01-26T15:53:00.993Z,30.33
2018-01-26T15:55:31.287Z,30.07
2018-01-26T15:57:59.580Z,28.57
2018-01-26T16:00:33.195Z,29.47
2018-01-26T16:03:00.903Z,29.17
2018-01-26T16:05:28.621Z,30.50
2018-01-26T16:07:57.459Z,27.77
2018-01-26T16:10:25.300Z,29.70
2018-01-26T16:12:52.961Z,28.43
2018-01-26T16:15:21.028Z,27.43
2018-01-26T16:17:51.208Z,26.37
2018-01-26T16:20:19.568Z,24.83
2018-01-26T16:22:47.302Z,24.57
2018-01-26T16:25:16.898Z,25.40
2018-01-26T16:27:44.744Z,24.30
2018-01-26T16:30:12.415Z,24.27
2018-01-26T16:32:40.438Z,24.37
2018-01-26T16:35:08.092Z,23.93
2018-01-26T16:37:40.108Z,24.53
2018-01-26T16:40:10.439Z,24.40
2018-01-26T16:42:38.099Z,23.10
2018-01-26T16:45:06.605Z,23.40
2018-01-26T16:47:34.301Z,23.40
2018-01-26T16:50:01.937Z,23.93
2018-01-26T16:52:29.733Z,24.63
2018-01-26T16:54:58.218Z,25.27
2018-01-26T16:57:26.118Z,25.10
2018-01-26T16:59:57.612Z,25.67
2018-01-26T17:02:26.524Z,25.97
2018-01-26T17:04:55.612Z,26.40
2018-01-26T17:07:25.908Z,25.43
2018-01-26T17:10:06.426Z,26.57
2018-01-26T17:12:35.224Z,26.73
2018-01-26T17:15:04.426Z,26.57
2018-01-26T18:34:10.554Z,31.80
2018-01-26T18:36:48.086Z,31.73
2018-01-26T18:44:37.283Z,28.10
2018-01-26T18:47:08.388Z,28.33
